Annada, Missouri
Current Conditions -  °F | °C
As of 5:15 PM on Friday 31 Oct 2014 (Local Time) from KPPQ Reporting Station
Clear Clear  
Wind Chill: 35°   Ceiling: Unl
Heat Index: 43°   Visibility: 10mi
Dew Point: 21°   Wind: 17mph
Humidity: 42%   Direction: 320°NW
Pressure: 30.36"   Gusts: 24mph
Location:  39.26°N, 90.83°W
Report Text: KPPQ 312215Z AUTO 32015G21KT 10SM CLR 06/M06 A3036 RMK AO2 T00611061
Loading
Personal Weather Stations






























Interactive Weather Map
Tropical Storm Tracking
New forecast layout! Learn more

10-Day Weather Forecast

Advertisements
Track Severe Weather on mobile